createdAt,value
2023-05-05T00:02:21.234Z,8.75
2023-05-05T00:04:49.189Z,8.50
2023-05-05T00:07:17.117Z,8.50
2023-05-05T00:09:45.333Z,7.25
2023-05-05T00:12:13.265Z,8.00
2023-05-05T00:14:41.249Z,8.50
2023-05-05T00:17:10.609Z,7.50
2023-05-05T00:19:38.778Z,7.75
2023-05-05T00:22:07.024Z,8.75
2023-05-05T00:24:34.975Z,7.75
2023-05-05T00:27:03.495Z,6.75
2023-05-05T00:29:31.842Z,10.00
2023-05-05T00:31:59.802Z,7.75
2023-05-05T00:34:29.487Z,9.00
2023-05-05T00:36:57.462Z,9.50
2023-05-05T00:39:25.646Z,9.00
2023-05-05T00:41:53.645Z,9.75
2023-05-05T00:44:36.093Z,7.00
2023-05-05T00:47:04.048Z,7.00
2023-05-05T00:49:33.775Z,9.50
2023-05-05T00:52:01.701Z,8.00
2023-05-05T00:54:29.629Z,7.75
2023-05-05T00:56:57.584Z,9.50
2023-05-05T00:59:25.815Z,9.25
2023-05-05T01:01:53.732Z,9.00
2023-05-05T01:04:21.729Z,7.75
2023-05-05T01:06:54.557Z,7.25
2023-05-05T01:09:27.083Z,8.50
2023-05-05T01:11:59.902Z,8.50
2023-05-05T01:14:31.021Z,8.75
2023-05-05T01:17:00.288Z,8.00
2023-05-05T01:19:42.512Z,7.75
2023-05-05T01:22:13.386Z,9.25
2023-05-05T01:24:47.008Z,7.75
2023-05-05T01:27:27.361Z,6.50
2023-05-05T01:30:05.155Z,8.75
2023-05-05T01:32:36.796Z,5.75
2023-05-05T01:35:08.316Z,9.00
2023-05-05T01:37:39.341Z,8.75
2023-05-05T01:40:10.522Z,7.25
2023-05-05T01:42:38.429Z,9.25
2023-05-05T01:45:09.897Z,7.50
2023-05-05T01:47:39.223Z,9.50
2023-05-05T01:50:08.256Z,10.00
2023-05-05T01:52:36.940Z,7.00
2023-05-05T01:55:04.967Z,9.25
2023-05-05T01:57:33.182Z,9.25
2023-05-05T02:00:01.712Z,9.25
2023-05-05T02:02:29.927Z,9.00
2023-05-05T02:04:59.233Z,8.00
2023-05-05T02:07:27.148Z,9.00
2023-05-05T02:09:55.313Z,7.50
2023-05-05T02:12:23.887Z,8.00
2023-05-05T02:14:51.812Z,7.25
2023-05-05T02:17:19.706Z,7.75
2023-05-05T02:19:47.939Z,8.75
2023-05-05T02:22:17.246Z,7.75
2023-05-05T02:24:45.204Z,7.75
2023-05-05T02:27:13.298Z,9.75
2023-05-05T02:29:45.885Z,8.50
2023-05-05T02:32:18.135Z,9.50
2023-05-05T02:34:46.087Z,9.00
2023-05-05T02:37:15.693Z,10.00
2023-05-05T02:39:48.422Z,9.25
2023-05-05T02:42:18.805Z,8.25
2023-05-05T02:44:46.700Z,9.00
2023-05-05T02:47:14.631Z,9.00
2023-05-05T02:49:43.756Z,8.00
2023-05-05T02:52:11.683Z,8.75
2023-05-05T02:54:39.706Z,9.25
2023-05-05T02:57:09.601Z,9.75
2023-05-05T02:59:42.217Z,9.75
2023-05-05T03:02:19.819Z,10.50
2023-05-05T03:04:49.828Z,9.00
2023-05-05T03:07:23.054Z,9.75
2023-05-05T03:09:55.467Z,9.00
2023-05-05T03:12:27.660Z,9.00
2023-05-05T03:14:55.723Z,9.50
2023-05-05T03:17:23.655Z,9.25
2023-05-05T03:19:51.905Z,8.75
2023-05-05T03:22:19.840Z,10.00
2023-05-05T03:24:51.243Z,8.75
2023-05-05T03:27:20.410Z,9.25
2023-05-05T03:29:50.014Z,8.50
2023-05-05T03:32:18.044Z,10.00
2023-05-05T03:34:45.991Z,11.25
2023-05-05T03:37:13.941Z,9.00
2023-05-05T03:39:42.167Z,9.25
2023-05-05T03:42:10.090Z,10.00
2023-05-05T03:44:38.021Z,8.50
2023-05-05T03:47:07.393Z,10.50
2023-05-05T03:49:35.611Z,10.50
2023-05-05T03:52:03.648Z,9.25
2023-05-05T03:54:31.859Z,10.50
2023-05-05T03:57:00.007Z,9.25
2023-05-05T03:59:28.530Z,10.25
2023-05-05T04:01:56.773Z,9.25
2023-05-05T04:04:26.139Z,8.25
2023-05-05T04:06:54.120Z,9.50
2023-05-05T04:09:22.315Z,9.75
2023-05-05T04:11:50.267Z,10.75
2023-05-05T04:14:18.204Z,10.00
2023-05-05T04:16:46.538Z,8.75
2023-05-05T04:19:14.747Z,10.25
2023-05-05T04:21:44.067Z,8.25
2023-05-05T04:24:11.996Z,10.00
2023-05-05T04:26:39.922Z,8.25
2023-05-05T04:29:09.932Z,9.50
2023-05-05T04:31:37.812Z,8.25
2023-05-05T04:34:06.212Z,11.50
2023-05-05T04:36:35.377Z,9.00
2023-05-05T04:39:07.170Z,10.00
2023-05-05T04:41:35.329Z,10.00
2023-05-05T04:44:03.268Z,10.50
2023-05-05T04:46:31.192Z,11.00
2023-05-05T04:49:00.803Z,10.50
2023-05-05T04:51:28.745Z,10.75
2023-05-05T04:53:56.963Z,8.50
2023-05-05T04:56:43.603Z,10.00
2023-05-05T04:59:11.642Z,10.75
2023-05-05T05:01:39.517Z,10.50
2023-05-05T05:04:07.461Z,10.75
2023-05-05T05:06:35.455Z,11.25
2023-05-05T05:09:05.709Z,10.00
2023-05-05T05:11:34.991Z,11.00
2023-05-05T05:14:03.149Z,12.50
2023-05-05T05:16:31.123Z,10.00
2023-05-05T05:19:01.475Z,10.75
2023-05-05T05:21:29.816Z,9.50
2023-05-05T05:23:57.654Z,13.25
2023-05-05T05:26:25.607Z,10.75
2023-05-05T05:28:55.695Z,11.00
2023-05-05T05:31:23.670Z,10.00
2023-05-05T05:33:51.668Z,10.25
2023-05-05T05:36:19.588Z,10.75
2023-05-05T05:38:47.741Z,11.75
2023-05-05T05:41:15.690Z,10.25
2023-05-05T05:43:43.590Z,10.75
2023-05-05T05:46:12.865Z,10.75
2023-05-05T05:48:42.166Z,10.00
2023-05-05T05:51:10.105Z,12.00
2023-05-05T05:53:38.017Z,9.75
2023-05-05T05:56:06.689Z,11.00
2023-05-05T05:58:34.905Z,11.25
2023-05-05T06:01:03.985Z,10.75
2023-05-05T06:03:33.392Z,12.00
2023-05-05T06:06:02.009Z,10.75
2023-05-05T06:08:29.936Z,10.50
2023-05-05T06:10:57.837Z,10.50
2023-05-05T06:13:25.721Z,11.50
2023-05-05T06:15:54.040Z,11.50
2023-05-05T06:18:22.309Z,11.50
2023-05-05T06:20:52.276Z,10.75
2023-05-05T06:23:20.340Z,9.75
2023-05-05T06:25:48.300Z,11.00
2023-05-05T06:28:16.399Z,12.75
2023-05-05T06:30:44.325Z,9.25
2023-05-05T06:33:12.317Z,10.75
2023-05-05T06:35:40.254Z,11.00
2023-05-05T06:38:10.336Z,10.75
2023-05-05T06:40:38.259Z,10.50
2023-05-05T06:43:06.190Z,11.00
2023-05-05T06:45:34.144Z,10.00
2023-05-05T06:48:02.445Z,10.00
2023-05-05T06:50:30.453Z,10.25
2023-05-05T06:53:00.676Z,12.25
2023-05-05T06:55:30.014Z,10.75
2023-05-05T06:57:58.197Z,9.75
2023-05-05T07:00:26.237Z,10.75
2023-05-05T07:02:54.146Z,10.75
2023-05-05T07:05:22.239Z,10.50
2023-05-05T07:07:53.930Z,10.00
2023-05-05T07:10:22.387Z,10.00
2023-05-05T07:12:51.837Z,10.75
2023-05-05T07:15:28.516Z,11.25
2023-05-05T07:17:57.922Z,10.25
2023-05-05T07:20:26.417Z,8.50
2023-05-05T07:22:54.604Z,12.50
2023-05-05T07:25:22.665Z,11.50
2023-05-05T07:27:52.337Z,11.00
2023-05-05T07:30:20.903Z,10.75
2023-05-05T07:32:49.133Z,10.50
2023-05-05T07:35:19.340Z,9.75
2023-05-05T07:37:47.617Z,11.00
2023-05-05T07:40:15.486Z,12.00
2023-05-05T07:42:43.368Z,9.00
2023-05-05T07:45:12.847Z,10.00
2023-05-05T07:47:41.663Z,10.75
2023-05-05T07:50:10.667Z,8.50
2023-05-05T07:52:48.349Z,8.75
2023-05-05T07:55:20.015Z,8.25
2023-05-05T07:57:49.640Z,11.25
2023-05-05T08:00:21.710Z,9.75
2023-05-05T08:02:49.914Z,11.00
2023-05-05T08:05:18.001Z,11.75
2023-05-05T08:07:46.213Z,10.50
2023-05-05T08:10:14.120Z,11.50
2023-05-05T08:12:42.076Z,11.50
2023-05-05T08:15:13.051Z,9.00
2023-05-05T08:17:52.666Z,10.25
2023-05-05T08:20:21.289Z,8.25
2023-05-05T08:22:49.407Z,9.75
2023-05-05T08:25:17.296Z,9.50
2023-05-05T08:27:46.012Z,11.00
2023-05-05T08:30:16.577Z,8.75
2023-05-05T08:32:44.552Z,10.00
2023-05-05T08:35:14.034Z,9.00
2023-05-05T08:37:42.278Z,8.00
2023-05-05T08:40:14.009Z,8.50
2023-05-05T08:42:42.030Z,8.00
2023-05-05T08:45:13.202Z,11.00
2023-05-05T08:47:43.281Z,10.25
2023-05-05T08:50:13.426Z,9.75
2023-05-05T08:52:44.554Z,10.00
2023-05-05T08:55:16.577Z,8.75
2023-05-05T08:57:47.619Z,11.50
2023-05-05T09:00:16.326Z,7.75
2023-05-05T09:02:44.270Z,9.75
2023-05-05T09:05:13.614Z,8.75
2023-05-05T09:07:43.717Z,9.75
2023-05-05T09:10:12.524Z,8.50
2023-05-05T09:12:41.443Z,9.75
2023-05-05T09:15:13.446Z,9.00
2023-05-05T09:17:41.943Z,9.75
2023-05-05T09:20:10.556Z,8.00
2023-05-05T09:22:40.495Z,8.00
2023-05-05T09:25:10.102Z,7.75
2023-05-05T09:27:38.440Z,9.25
2023-05-05T09:30:09.959Z,9.25
2023-05-05T09:32:47.825Z,8.00
2023-05-05T09:35:16.081Z,8.75
2023-05-05T09:37:45.626Z,7.75
2023-05-05T09:40:14.504Z,9.50
2023-05-05T09:42:42.471Z,8.75
2023-05-05T09:45:26.809Z,8.75
2023-05-05T09:47:59.797Z,7.75
2023-05-05T09:50:30.766Z,8.50
2023-05-05T09:53:02.738Z,8.75
2023-05-05T09:55:31.476Z,9.50
2023-05-05T09:58:07.323Z,8.75
2023-05-05T10:00:39.168Z,8.00
2023-05-05T10:03:07.239Z,8.50
2023-05-05T10:05:35.195Z,8.00
2023-05-05T10:08:13.597Z,8.50
2023-05-05T10:10:42.407Z,7.50
2023-05-05T10:13:10.770Z,7.75
2023-05-05T10:15:38.831Z,7.25
2023-05-05T10:18:08.404Z,7.00
2023-05-05T10:20:37.000Z,6.25
2023-05-05T10:23:06.948Z,7.50
2023-05-05T10:25:38.843Z,6.50
2023-05-05T10:28:07.710Z,8.00
2023-05-05T10:30:38.151Z,8.00
2023-05-05T10:33:30.188Z,8.75
2023-05-05T10:35:58.731Z,8.25
2023-05-05T10:38:28.886Z,6.50
2023-05-05T10:40:56.798Z,8.25
2023-05-05T10:43:24.754Z,8.75
2023-05-05T10:45:52.786Z,8.25
2023-05-05T10:48:23.948Z,6.75
2023-05-05T10:50:53.675Z,6.75
2023-05-05T10:53:24.793Z,6.75
2023-05-05T10:55:58.606Z,8.00
2023-05-05T10:58:47.059Z,8.75
2023-05-05T11:01:29.825Z,7.75
2023-05-05T11:04:19.898Z,6.75
2023-05-05T11:07:24.511Z,8.75
2023-05-05T11:09:56.496Z,7.25
2023-05-05T11:12:25.812Z,7.50
2023-05-05T11:15:30.798Z,7.50
2023-05-05T11:18:05.799Z,8.00
2023-05-05T11:21:03.637Z,7.50
2023-05-05T11:23:31.686Z,7.00
2023-05-05T11:26:00.019Z,6.25
2023-05-05T11:28:31.517Z,7.00
2023-05-05T11:31:26.698Z,7.75
2023-05-05T11:33:54.682Z,8.00
2023-05-05T11:36:22.761Z,6.75
2023-05-05T11:39:05.009Z,7.50
2023-05-05T11:41:58.018Z,7.50
2023-05-05T11:44:32.687Z,6.25
2023-05-05T11:47:29.117Z,6.75
2023-05-05T11:49:57.502Z,6.75
2023-05-05T11:52:27.492Z,6.75
2023-05-05T11:54:55.363Z,7.00
2023-05-05T11:57:29.928Z,7.00
2023-05-05T12:00:00.898Z,5.75
2023-05-05T12:02:29.629Z,5.75
2023-05-05T12:04:57.753Z,5.75
2023-05-05T12:07:27.076Z,6.75
2023-05-05T12:09:55.260Z,6.75
2023-05-05T12:12:23.237Z,6.75
2023-05-05T12:14:52.916Z,5.25
2023-05-05T12:17:22.847Z,5.75
2023-05-05T12:19:52.249Z,5.75
2023-05-05T12:22:23.813Z,6.00
2023-05-05T12:24:57.883Z,5.75
2023-05-05T12:27:26.364Z,6.00
2023-05-05T12:29:55.538Z,5.75
2023-05-05T12:32:25.573Z,6.75
2023-05-05T12:34:56.208Z,5.75
2023-05-05T12:37:24.556Z,4.75
2023-05-05T12:39:54.838Z,5.00
2023-05-05T12:42:23.262Z,5.75
2023-05-05T12:44:51.520Z,5.00
2023-05-05T12:47:32.974Z,5.00
2023-05-05T12:50:03.247Z,5.25
2023-05-05T12:52:44.602Z,6.00
2023-05-05T12:55:12.630Z,5.75
2023-05-05T12:57:43.857Z,5.50
2023-05-05T13:00:16.431Z,4.75
2023-05-05T13:02:46.094Z,5.25
2023-05-05T13:05:14.210Z,4.75
2023-05-05T13:07:52.500Z,5.75
2023-05-05T13:10:21.066Z,5.75
2023-05-05T13:12:49.466Z,5.00
2023-05-05T13:15:17.996Z,6.00
2023-05-05T13:17:49.695Z,4.50
2023-05-05T13:20:18.029Z,4.75
2023-05-05T13:22:46.241Z,5.25
2023-05-05T13:25:14.737Z,5.00
2023-05-05T13:27:43.564Z,5.00
2023-05-05T13:30:12.765Z,5.75
2023-05-05T13:32:40.804Z,4.50
2023-05-05T13:35:11.214Z,4.00
2023-05-05T13:37:41.469Z,5.00
2023-05-05T13:40:10.830Z,4.75
2023-05-05T13:42:38.745Z,4.75
2023-05-05T13:45:10.001Z,4.50
2023-05-05T13:47:38.204Z,5.50
2023-05-05T13:50:07.306Z,4.25
2023-05-05T13:52:37.466Z,5.00
2023-05-05T13:55:06.359Z,4.00
2023-05-05T13:57:37.791Z,4.25
2023-05-05T14:00:13.725Z,5.75
2023-05-05T14:02:42.058Z,5.75
2023-05-05T14:05:10.971Z,4.75
2023-05-05T14:07:40.871Z,4.50
2023-05-05T14:10:09.694Z,5.75
2023-05-05T14:12:37.680Z,4.00
2023-05-05T14:15:09.104Z,4.75
2023-05-05T14:17:37.299Z,4.75
2023-05-05T14:20:05.999Z,3.75
2023-05-05T14:22:34.078Z,6.00
2023-05-05T14:25:03.412Z,4.25
2023-05-05T14:27:31.311Z,3.75
2023-05-05T14:30:00.554Z,4.75
2023-05-05T14:32:28.570Z,4.75
2023-05-05T14:34:56.505Z,3.75
2023-05-05T14:37:25.075Z,4.75
2023-05-05T14:39:53.279Z,4.75
2023-05-05T14:42:22.535Z,5.75
2023-05-05T14:44:50.570Z,4.00
2023-05-05T14:47:18.498Z,4.75
2023-05-05T14:49:46.647Z,5.50
2023-05-05T14:52:14.561Z,5.00
2023-05-05T14:54:42.510Z,4.25
2023-05-05T14:57:10.415Z,4.25
2023-05-05T14:59:40.004Z,4.75
2023-05-05T15:02:08.474Z,4.75
2023-05-05T15:04:36.357Z,3.75
2023-05-05T15:07:04.389Z,4.50
2023-05-05T15:09:32.674Z,3.75
2023-05-05T15:12:00.670Z,4.50
2023-05-05T15:14:28.716Z,5.50
2023-05-05T15:16:58.194Z,4.00
2023-05-05T15:19:26.501Z,3.75
2023-05-05T15:21:54.577Z,5.50
2023-05-05T15:24:22.870Z,4.00
2023-05-05T15:26:50.739Z,3.75
2023-05-05T15:29:19.063Z,5.50
2023-05-05T15:31:47.030Z,4.00
2023-05-05T15:34:16.361Z,3.75
2023-05-05T15:36:44.311Z,3.75
2023-05-05T15:39:12.469Z,3.75
2023-05-05T15:41:40.399Z,3.50
2023-05-05T15:44:08.994Z,4.75
2023-05-05T15:46:37.038Z,3.50
2023-05-05T15:49:05.263Z,4.75
2023-05-05T15:51:34.545Z,6.00
2023-05-05T15:54:02.464Z,2.75
2023-05-05T15:56:30.383Z,3.75
2023-05-05T15:58:58.629Z,4.75
2023-05-05T16:01:26.809Z,3.50
2023-05-05T16:03:54.792Z,4.00
2023-05-05T16:06:23.132Z,4.75
2023-05-05T16:08:52.742Z,4.75
2023-05-05T16:11:21.880Z,3.50
2023-05-05T16:13:50.329Z,4.00
2023-05-05T16:16:18.276Z,4.00
2023-05-05T16:18:46.551Z,4.25
2023-05-05T16:21:14.447Z,3.75
2023-05-05T16:23:42.493Z,3.75
2023-05-05T16:26:11.897Z,5.50
2023-05-05T16:28:40.080Z,3.75
2023-05-05T16:31:09.503Z,46.75
2023-05-05T16:33:40.715Z,65.75
2023-05-05T16:36:10.155Z,41.75
2023-05-05T16:38:39.527Z,38.75
2023-05-05T16:41:08.284Z,34.25
2023-05-05T16:43:37.924Z,40.00
2023-05-05T16:46:06.155Z,37.00
2023-05-05T16:48:35.445Z,43.50
2023-05-05T16:51:03.357Z,36.25
2023-05-05T16:53:31.305Z,34.50
2023-05-05T16:55:59.468Z,34.75
2023-05-05T16:58:27.537Z,29.75
2023-05-05T17:00:56.861Z,31.00
2023-05-05T17:03:24.805Z,30.25
2023-05-05T17:05:53.801Z,31.25
2023-05-05T17:08:21.898Z,27.75
2023-05-05T17:10:49.806Z,26.25
2023-05-05T17:13:17.933Z,30.25
2023-05-05T17:15:45.981Z,27.75
2023-05-05T17:18:15.670Z,25.50
2023-05-05T17:20:43.854Z,28.75
2023-05-05T17:23:11.780Z,28.00
2023-05-05T17:25:39.738Z,28.50
2023-05-05T17:28:15.755Z,27.75
2023-05-05T17:30:43.944Z,25.50
2023-05-05T17:33:11.936Z,23.75
2023-05-05T17:35:41.411Z,24.50
2023-05-05T17:38:09.791Z,25.00
2023-05-05T17:40:37.712Z,25.25
2023-05-05T17:43:05.635Z,25.50
2023-05-05T17:45:33.641Z,25.75
2023-05-05T17:48:03.076Z,22.50
2023-05-05T17:50:31.043Z,20.75
2023-05-05T17:53:00.646Z,21.75
2023-05-05T17:55:28.848Z,22.75
2023-05-05T17:57:58.907Z,24.75
2023-05-05T18:00:27.299Z,22.75
2023-05-05T18:02:55.246Z,23.25
2023-05-05T18:05:23.293Z,24.75
2023-05-05T18:07:51.209Z,25.50
2023-05-05T18:10:20.761Z,23.50
2023-05-05T18:12:48.725Z,20.50
2023-05-05T18:15:16.701Z,20.75
2023-05-05T18:17:44.966Z,22.75
2023-05-05T18:20:13.176Z,20.75
2023-05-05T18:22:41.279Z,22.75
2023-05-05T18:25:10.318Z,22.50
2023-05-05T18:27:40.336Z,21.25
2023-05-05T18:30:11.137Z,22.00
2023-05-05T18:32:39.204Z,19.50
2023-05-05T18:35:08.366Z,20.50
2023-05-05T18:37:36.468Z,21.50
2023-05-05T18:40:05.030Z,19.00
2023-05-05T18:42:32.952Z,21.00
2023-05-05T18:45:02.763Z,22.75
2023-05-05T18:47:30.757Z,23.00
2023-05-05T18:49:59.026Z,19.00
2023-05-05T18:52:27.445Z,23.50
2023-05-05T18:54:55.366Z,20.25
2023-05-05T18:57:23.242Z,19.75
2023-05-05T18:59:51.483Z,18.75
2023-05-05T19:02:20.836Z,18.75
2023-05-05T19:04:48.803Z,20.25
2023-05-05T19:07:27.925Z,17.25
2023-05-05T19:10:02.109Z,18.50
2023-05-05T19:12:30.064Z,19.25
2023-05-05T19:14:57.973Z,18.25
2023-05-05T19:17:27.710Z,19.25
2023-05-05T19:19:55.991Z,19.00
2023-05-05T19:22:24.022Z,21.25
2023-05-05T19:24:51.892Z,19.75
2023-05-05T19:27:19.908Z,20.00
2023-05-05T19:29:51.889Z,20.00
2023-05-05T19:32:20.130Z,22.25
2023-05-05T19:34:49.586Z,22.25
2023-05-05T19:37:17.580Z,20.00
2023-05-05T19:39:45.822Z,19.75
2023-05-05T19:42:13.808Z,19.00
2023-05-05T19:44:41.702Z,20.50
2023-05-05T19:47:11.046Z,19.25
2023-05-05T19:49:39.503Z,21.00
2023-05-05T19:52:08.777Z,22.25
2023-05-05T19:54:37.263Z,24.50
2023-05-05T19:57:05.294Z,22.25
2023-05-05T19:59:33.636Z,24.50
2023-05-05T20:02:01.666Z,19.50
2023-05-05T20:04:29.609Z,20.50
2023-05-05T20:06:57.558Z,22.25
2023-05-05T20:09:28.979Z,22.00
2023-05-05T20:11:57.265Z,20.50
2023-05-05T20:14:25.720Z,21.00
2023-05-05T20:16:53.669Z,21.00
2023-05-05T20:19:21.921Z,18.50
2023-05-05T20:21:49.838Z,23.00
2023-05-05T20:24:18.226Z,22.00
2023-05-05T20:26:47.546Z,20.75
2023-05-05T20:29:16.306Z,23.75
2023-05-05T20:31:44.363Z,21.50
2023-05-05T20:34:12.307Z,21.25
2023-05-05T20:36:40.288Z,19.75
2023-05-05T20:39:08.607Z,23.00
2023-05-05T20:41:37.989Z,18.50
2023-05-05T20:44:09.258Z,22.00
2023-05-05T20:46:37.597Z,20.25
2023-05-05T20:49:05.604Z,20.00
2023-05-05T20:51:35.108Z,21.25
2023-05-05T20:54:03.626Z,19.75
2023-05-05T20:56:31.625Z,19.75
2023-05-05T20:58:59.582Z,20.00
2023-05-05T21:01:29.553Z,23.50
2023-05-05T21:03:57.566Z,18.75
2023-05-05T21:06:25.547Z,20.25
2023-05-05T21:08:53.514Z,21.75
2023-05-05T21:11:21.957Z,20.75
2023-05-05T21:13:49.888Z,20.50
2023-05-05T21:16:17.889Z,21.00
2023-05-05T21:18:47.338Z,25.50
2023-05-05T21:21:15.581Z,23.75
2023-05-05T21:23:43.476Z,23.75
2023-05-05T21:26:11.441Z,23.75
2023-05-05T21:28:39.336Z,26.75
2023-05-05T21:31:21.122Z,22.75
2023-05-05T21:33:51.646Z,23.50
2023-05-05T21:36:20.869Z,26.00
2023-05-05T21:38:48.814Z,25.25
2023-05-05T21:41:16.753Z,25.75
2023-05-05T21:43:44.651Z,29.50
2023-05-05T21:46:12.917Z,28.00
2023-05-05T21:48:41.452Z,30.50
2023-05-05T21:51:11.029Z,28.25
2023-05-05T21:53:39.899Z,22.50
2023-05-05T21:56:08.148Z,25.75
2023-05-05T21:58:36.102Z,28.25
2023-05-05T22:01:04.371Z,29.50
2023-05-05T22:03:32.429Z,26.50
2023-05-05T22:06:00.524Z,26.25
2023-05-05T22:08:29.792Z,25.00
2023-05-05T22:10:58.008Z,29.00
2023-05-05T22:13:25.910Z,25.25
2023-05-05T22:15:53.850Z,28.00
2023-05-05T22:18:21.786Z,21.75
2023-05-05T22:20:49.963Z,25.25
2023-05-05T22:23:17.921Z,26.50
2023-05-05T22:25:47.698Z,23.25
2023-05-05T22:28:15.605Z,24.25
2023-05-05T22:30:43.929Z,23.25
2023-05-05T22:33:11.955Z,26.25
2023-05-05T22:35:39.862Z,22.75
2023-05-05T22:38:07.840Z,27.25
2023-05-05T22:40:36.248Z,24.50
2023-05-05T22:43:05.644Z,23.75
2023-05-05T22:45:33.677Z,26.25
2023-05-05T22:48:01.820Z,26.50
2023-05-05T22:50:29.852Z,24.00
2023-05-05T22:52:57.865Z,27.50
2023-05-05T22:55:26.808Z,24.75
2023-05-05T22:57:54.693Z,30.00
2023-05-05T23:00:25.182Z,26.75
2023-05-05T23:02:53.140Z,30.50
2023-05-05T23:05:21.256Z,25.50
2023-05-05T23:07:49.235Z,27.50
2023-05-05T23:10:18.573Z,31.00
2023-05-05T23:12:46.549Z,35.00
2023-05-05T23:15:14.503Z,29.25
2023-05-05T23:17:43.830Z,30.00
2023-05-05T23:20:13.252Z,30.75
2023-05-05T23:22:41.238Z,28.00
2023-05-05T23:25:10.123Z,29.75
2023-05-05T23:27:39.393Z,23.75
2023-05-05T23:30:10.428Z,26.25
2023-05-05T23:32:38.494Z,26.50
2023-05-05T23:37:54.724Z,26.00
2023-05-05T23:40:22.714Z,27.75
2023-05-05T23:42:50.700Z,27.25
2023-05-05T23:45:19.487Z,23.50
2023-05-05T23:47:47.661Z,25.25
2023-05-05T23:50:15.725Z,25.50
2023-05-05T23:52:43.993Z,26.50
2023-05-05T23:55:14.364Z,21.00
2023-05-05T23:57:42.236Z,23.00
